Time;durP1;ratioP1;P1;durP2;ratioP2;P2;SDS_P1;SDS_P2;PMS_P1;PMS_P2;Temp;Humidity;BMP_temperature;BMP_pressure;BME280_temperature;BME280_humidity;BME280_pressure;Samples;Min_cycle;Max_cycle;Signal;HPM_P1;HPM_P2
2022/10/11 00:01:48;;;;;;;;;;;21.40;45.20;20.20;101921.00;;;;5079786;28;19925;-66
2022/10/11 00:04:34;;;;;;;;;;;21.40;45.10;20.20;101928.00;;;;5080697;28;19920;-67
2022/10/11 00:07:20;;;;;;;;;;;21.40;45.10;20.20;101924.00;;;;5081418;28;20281;-66
2022/10/11 00:10:07;;;;;;;;;;;21.40;45.20;20.20;101933.00;;;;5095156;28;19966;-66
2022/10/11 00:12:53;;;;;;;;;;;21.40;45.10;20.20;101940.00;;;;5074013;28;19970;-66
2022/10/11 00:15:39;;;;;;;;;;;21.40;45.20;20.20;101935.00;;;;5075678;28;19952;-66
2022/10/11 00:18:25;;;;;;;;;;;21.40;45.10;20.20;101935.00;;;;5078590;28;20030;-66
2022/10/11 00:21:12;;;;;;;;;;;21.40;45.20;20.20;101944.00;;;;5086477;28;20609;-66
2022/10/11 00:23:58;;;;;;;;;;;21.40;45.20;20.20;101938.00;;;;5092834;28;19922;-67
2022/10/11 00:26:44;;;;;;;;;;;21.40;45.10;20.20;101948.00;;;;5076622;28;19916;-66
2022/10/11 00:29:30;;;;;;;;;;;21.40;45.10;20.20;101950.00;;;;5074706;28;19920;-66
2022/10/11 00:32:16;;;;;;;;;;;21.40;45.10;20.20;101945.00;;;;5074256;28;19925;-66
2022/10/11 00:35:05;;;;;;;;;;;21.40;45.10;20.10;101959.00;;;;5080572;28;20315;-66
2022/10/11 00:37:51;;;;;;;;;;;21.30;45.10;20.10;101955.00;;;;5080641;28;20277;-66
2022/10/11 00:40:37;;;;;;;;;;;21.40;45.10;20.10;101960.00;;;;5074175;28;19921;-67
2022/10/11 00:43:25;;;;;;;;;;;21.30;45.10;20.10;101951.00;;;;5088249;28;19962;-66
2022/10/11 00:46:17;;;;;;;;;;;21.30;45.10;20.10;101957.00;;;;5082642;28;19990;-67
2022/10/11 00:49:58;;;;;;;;;;;21.30;45.00;20.10;101966.00;;;;5078124;28;19916;-67
2022/10/11 00:52:45;;;;;;;;;;;21.30;45.10;20.10;101959.00;;;;5078758;28;19946;-66
2022/10/11 00:55:34;;;;;;;;;;;21.30;45.10;20.10;101960.00;;;;5072751;28;19916;-66
2022/10/11 00:58:20;;;;;;;;;;;21.30;45.00;20.10;101969.00;;;;5063500;28;20428;-66
2022/10/11 01:01:06;;;;;;;;;;;21.30;45.00;20.10;101973.00;;;;5056378;28;19931;-66
2022/10/11 01:03:52;;;;;;;;;;;21.30;45.00;20.10;101967.00;;;;5089965;28;19917;-66
2022/10/11 01:06:38;;;;;;;;;;;21.30;45.00;20.10;101970.00;;;;5065376;28;19916;-66
2022/10/11 01:09:25;;;;;;;;;;;21.30;45.00;20.10;101974.00;;;;5073901;28;19916;-66
2022/10/11 01:12:14;;;;;;;;;;;21.30;45.00;20.00;101976.00;;;;5087798;28;19916;-66
2022/10/11 01:15:19;;;;;;;;;;;21.20;45.00;20.00;101982.00;;;;5090842;28;20258;-66
2022/10/11 01:18:34;;;;;;;;;;;21.30;45.00;20.00;101975.00;;;;5072235;28;20003;-66
2022/10/11 01:21:41;;;;;;;;;;;21.20;45.00;20.00;101975.00;;;;5066588;28;20017;-67
2022/10/11 01:24:44;;;;;;;;;;;21.20;45.00;20.00;101977.00;;;;5067315;28;20316;-66
2022/10/11 01:27:40;;;;;;;;;;;21.20;45.00;20.00;101980.00;;;;5059964;28;19917;-66
2022/10/11 01:30:30;;;;;;;;;;;21.20;45.00;20.00;101983.00;;;;5088014;28;19920;-66
2022/10/11 01:33:20;;;;;;;;;;;21.20;45.00;20.00;101991.00;;;;5090046;28;19920;-66
2022/10/11 01:36:09;;;;;;;;;;;21.20;44.90;20.00;101991.00;;;;5066125;28;20266;-66
2022/10/11 01:38:58;;;;;;;;;;;21.20;45.00;20.00;101981.00;;;;5093540;28;20289;-66
2022/10/11 01:41:54;;;;;;;;;;;21.10;44.90;20.00;101990.00;;;;5083711;28;19927;-66
2022/10/11 01:44:40;;;;;;;;;;;21.20;44.90;20.00;101991.00;;;;5081162;28;19990;-66
2022/10/11 01:47:26;;;;;;;;;;;21.20;44.90;20.00;102002.00;;;;5076406;28;19916;-67
2022/10/11 01:50:40;;;;;;;;;;;21.20;44.90;20.00;101994.00;;;;5077603;28;20443;-66
2022/10/11 01:53:51;;;;;;;;;;;21.20;44.90;20.00;101991.00;;;;5069770;28;19970;-66
2022/10/11 01:56:55;;;;;;;;;;;21.10;44.80;19.90;101997.00;;;;5092878;28;20329;-66
2022/10/11 01:59:50;;;;;;;;;;;21.10;44.80;19.90;101995.00;;;;5078734;28;19920;-66
2022/10/11 02:02:48;;;;;;;;;;;21.10;44.70;19.90;101997.00;;;;5082911;28;19920;-66
2022/10/11 02:05:45;;;;;;;;;;;21.10;44.70;19.90;101996.00;;;;5083583;28;20015;-66
2022/10/11 02:08:37;;;;;;;;;;;21.10;44.70;19.90;101998.00;;;;5092272;28;20323;-66
2022/10/11 02:11:25;;;;;;;;;;;21.00;44.70;19.90;102001.00;;;;5086544;28;19962;-66
2022/10/11 02:14:22;;;;;;;;;;;21.10;44.70;19.90;101999.00;;;;5078422;28;20550;-66
2022/10/11 02:17:11;;;;;;;;;;;21.10;44.80;19.90;102007.00;;;;5090138;28;19916;-66
2022/10/11 02:19:57;;;;;;;;;;;21.10;44.70;19.90;102005.00;;;;5077510;28;19925;-66
2022/10/11 02:22:44;;;;;;;;;;;21.10;44.70;19.90;102005.00;;;;5086885;28;19920;-66
2022/10/11 02:25:31;;;;;;;;;;;21.10;44.70;19.90;102006.00;;;;5080743;28;19947;-66
2022/10/11 02:28:20;;;;;;;;;;;21.00;44.60;19.90;102003.00;;;;5083472;28;19924;-66
2022/10/11 02:31:06;;;;;;;;;;;21.00;44.60;19.90;102006.00;;;;5091238;27;19916;-66
2022/10/11 02:33:57;;;;;;;;;;;21.00;44.60;19.80;102008.00;;;;5078050;28;19926;-66
2022/10/11 02:37:06;;;;;;;;;;;21.10;44.70;19.80;102010.00;;;;5086862;28;19921;-67
2022/10/11 02:39:54;;;;;;;;;;;21.00;44.60;19.80;102011.00;;;;5077192;28;20476;-66
2022/10/11 02:42:58;;;;;;;;;;;21.00;44.60;19.80;102011.00;;;;5088194;27;19920;-66
2022/10/11 02:45:47;;;;;;;;;;;21.00;44.50;19.80;102013.00;;;;5081357;28;19970;-66
2022/10/11 02:48:34;;;;;;;;;;;20.90;44.50;19.80;102019.00;;;;5077410;28;19930;-67
2022/10/11 02:51:20;;;;;;;;;;;21.00;44.50;19.80;102022.00;;;;5089882;28;19916;-66
2022/10/11 02:54:06;;;;;;;;;;;21.00;44.50;19.80;102026.00;;;;5091888;27;19920;-66
2022/10/11 02:56:52;;;;;;;;;;;20.90;44.50;19.80;102021.00;;;;5088142;28;19917;-66
2022/10/11 02:59:38;;;;;;;;;;;20.90;44.50;19.80;102017.00;;;;5098192;28;19951;-66
2022/10/11 03:02:24;;;;;;;;;;;21.00;44.50;19.80;102029.00;;;;5079070;28;19923;-67
2022/10/11 03:05:10;;;;;;;;;;;20.90;44.50;19.80;102033.00;;;;5086517;28;19920;-66
2022/10/11 03:07:56;;;;;;;;;;;20.90;44.50;19.70;102028.00;;;;5074726;28;20027;-66
2022/10/11 03:10:42;;;;;;;;;;;20.90;44.50;19.70;102037.00;;;;5079391;28;20011;-66
2022/10/11 03:13:28;;;;;;;;;;;20.90;44.50;19.70;102045.00;;;;5076799;28;20285;-66
2022/10/11 03:16:14;;;;;;;;;;;20.90;44.50;19.70;102040.00;;;;5087300;27;19916;-66
2022/10/11 03:19:00;;;;;;;;;;;20.90;44.40;19.70;102043.00;;;;5084443;28;19923;-66
2022/10/11 03:21:46;;;;;;;;;;;20.90;44.40;19.70;102046.00;;;;5085128;28;19923;-67
2022/10/11 03:24:32;;;;;;;;;;;20.90;44.40;19.70;102048.00;;;;5082285;28;19920;-66
2022/10/11 03:27:18;;;;;;;;;;;20.90;44.40;19.70;102050.00;;;;5073661;28;19920;-67
2022/10/11 03:30:04;;;;;;;;;;;20.90;44.40;19.70;102052.00;;;;5079493;28;19921;-66
2022/10/11 03:32:50;;;;;;;;;;;20.90;44.40;19.70;102050.00;;;;5081991;28;20361;-66
2022/10/11 03:35:36;;;;;;;;;;;20.80;44.30;19.70;102052.00;;;;5075295;28;20421;-66
2022/10/11 03:38:22;;;;;;;;;;;20.80;44.30;19.70;102064.00;;;;5085696;28;19923;-66
2022/10/11 03:41:08;;;;;;;;;;;20.80;44.30;19.70;102061.00;;;;5100231;28;19920;-66
2022/10/11 03:43:54;;;;;;;;;;;20.90;44.40;19.60;102065.00;;;;5081238;28;19921;-66
2022/10/11 03:46:40;;;;;;;;;;;20.80;44.30;19.60;102075.00;;;;5086383;28;19919;-66
2022/10/11 03:49:26;;;;;;;;;;;20.80;44.30;19.60;102061.00;;;;5078644;28;20269;-66
2022/10/11 03:52:12;;;;;;;;;;;20.80;44.30;19.60;102068.00;;;;5082412;28;19916;-66
2022/10/11 03:54:58;;;;;;;;;;;20.80;44.30;19.60;102071.00;;;;5085026;28;19916;-66
2022/10/11 03:57:44;;;;;;;;;;;20.80;44.30;19.60;102077.00;;;;5079409;28;19952;-66
2022/10/11 04:00:31;;;;;;;;;;;20.80;44.20;19.60;102079.00;;;;5092866;28;19924;-66
2022/10/11 04:03:17;;;;;;;;;;;20.70;44.20;19.60;102087.00;;;;5088558;27;19921;-66
2022/10/11 04:06:03;;;;;;;;;;;20.80;44.20;19.60;102085.00;;;;5083623;28;19920;-66
2022/10/11 04:08:49;;;;;;;;;;;20.80;44.20;19.60;102085.00;;;;5077476;28;19931;-66
2022/10/11 04:11:35;;;;;;;;;;;20.80;44.20;19.60;102091.00;;;;5086904;28;19916;-66
2022/10/11 04:14:21;;;;;;;;;;;20.80;44.20;19.60;102092.00;;;;5082508;28;19923;-66
2022/10/11 04:17:07;;;;;;;;;;;20.80;44.20;19.60;102095.00;;;;5084207;28;19927;-66
2022/10/11 04:19:53;;;;;;;;;;;20.80;44.20;19.60;102100.00;;;;5086612;28;19923;-66
2022/10/11 04:22:39;;;;;;;;;;;20.70;44.10;19.50;102095.00;;;;5102993;27;19954;-67
2022/10/11 04:25:25;;;;;;;;;;;20.70;44.10;19.50;102107.00;;;;5078527;28;19923;-66
2022/10/11 04:28:11;;;;;;;;;;;20.80;44.10;19.50;102111.00;;;;5075632;28;19930;-66
2022/10/11 04:30:57;;;;;;;;;;;20.70;44.10;19.50;102116.00;;;;5078498;28;19920;-66
2022/10/11 04:33:43;;;;;;;;;;;20.70;44.10;19.50;102125.00;;;;5079233;28;19924;-66
2022/10/11 04:36:31;;;;;;;;;;;20.70;44.10;19.50;102120.00;;;;5086157;28;20373;-66
2022/10/11 04:39:17;;;;;;;;;;;20.70;44.10;19.50;102125.00;;;;5079844;28;19938;-66
2022/10/11 04:42:03;;;;;;;;;;;20.70;44.00;19.50;102120.00;;;;5094330;27;19947;-66
2022/10/11 04:44:49;;;;;;;;;;;20.70;44.10;19.50;102133.00;;;;5086510;28;19920;-66
2022/10/11 04:47:35;;;;;;;;;;;20.70;44.00;19.50;102130.00;;;;5081223;28;19943;-66
2022/10/11 04:50:21;;;;;;;;;;;20.70;44.00;19.50;102133.00;;;;5061934;28;20031;-66
2022/10/11 04:53:07;;;;;;;;;;;20.70;44.00;19.50;102131.00;;;;5059243;28;20000;-67
2022/10/11 04:56:01;;;;;;;;;;;20.70;44.00;19.50;102144.00;;;;5083101;28;19928;-66
2022/10/11 04:58:48;;;;;;;;;;;20.70;44.00;19.50;102142.00;;;;5078610;28;20274;-66
2022/10/11 05:01:34;;;;;;;;;;;20.70;44.00;19.50;102152.00;;;;5081028;28;19934;-66
2022/10/11 05:04:20;;;;;;;;;;;20.70;44.00;19.50;102139.00;;;;5086641;28;19983;-66
2022/10/11 05:07:06;;;;;;;;;;;20.70;44.00;19.50;102142.00;;;;5064724;28;19923;-66
2022/10/11 05:09:52;;;;;;;;;;;20.70;43.90;19.50;102143.00;;;;5082286;28;19916;-66
2022/10/11 05:12:38;;;;;;;;;;;20.70;44.00;19.50;102144.00;;;;5075806;28;20373;-66
2022/10/11 05:15:24;;;;;;;;;;;20.60;43.90;19.40;102150.00;;;;5077501;28;20358;-66
2022/10/11 05:18:10;;;;;;;;;;;20.70;43.90;19.40;102140.00;;;;5079224;28;19916;-66
2022/10/11 05:21:03;;;;;;;;;;;20.60;43.80;19.40;102148.00;;;;5079819;28;19924;-66
2022/10/11 05:23:50;;;;;;;;;;;20.60;43.80;19.40;102152.00;;;;5063407;28;19924;-66
2022/10/11 05:26:36;;;;;;;;;;;20.60;43.80;19.40;102154.00;;;;5090925;28;19915;-66
2022/10/11 05:29:22;;;;;;;;;;;20.60;43.80;19.40;102149.00;;;;5078769;28;20192;-67
2022/10/11 05:32:08;;;;;;;;;;;20.60;43.80;19.40;102158.00;;;;5080895;28;20286;-66
2022/10/11 05:34:54;;;;;;;;;;;20.60;43.80;19.40;102157.00;;;;5077490;28;19919;-66
2022/10/11 05:37:40;;;;;;;;;;;20.60;43.80;19.40;102155.00;;;;5072549;28;20003;-66
2022/10/11 05:40:26;;;;;;;;;;;20.60;43.80;19.40;102160.00;;;;5074228;28;20566;-66
2022/10/11 05:43:12;;;;;;;;;;;20.60;43.80;19.40;102161.00;;;;5077864;28;20091;-66
2022/10/11 05:45:58;;;;;;;;;;;20.70;43.80;19.40;102167.00;;;;5073218;28;19923;-66
2022/10/11 05:48:44;;;;;;;;;;;20.60;43.70;19.40;102166.00;;;;5074328;28;19955;-66
2022/10/11 05:51:30;;;;;;;;;;;20.60;43.70;19.40;102164.00;;;;5082552;28;19942;-66
2022/10/11 05:54:16;;;;;;;;;;;20.60;43.70;19.40;102167.00;;;;5080997;28;19916;-66
2022/10/11 05:57:02;;;;;;;;;;;20.60;43.70;19.40;102170.00;;;;5080255;28;20703;-66
2022/10/11 05:59:48;;;;;;;;;;;20.60;43.70;19.40;102170.00;;;;5081362;28;20374;-66
2022/10/11 06:02:35;;;;;;;;;;;20.60;43.70;19.40;102176.00;;;;5095660;27;19923;-67
2022/10/11 06:05:21;;;;;;;;;;;20.60;43.70;19.40;102164.00;;;;5081241;28;20353;-66
2022/10/11 06:08:07;;;;;;;;;;;20.60;43.70;19.40;102175.00;;;;5077066;28;20255;-66
2022/10/11 06:10:53;;;;;;;;;;;20.60;43.60;19.40;102179.00;;;;5076611;28;19923;-66
2022/10/11 06:13:39;;;;;;;;;;;20.60;44.40;19.40;102182.00;;;;5081397;28;20411;-66
2022/10/11 06:16:26;;;;;;;;;;;20.60;43.60;19.30;102185.00;;;;5088291;27;19923;-66
2022/10/11 06:19:12;;;;;;;;;;;20.60;43.60;19.30;102187.00;;;;5077978;28;19917;-66
2022/10/11 06:21:58;;;;;;;;;;;20.60;43.60;19.30;102193.00;;;;5080911;28;19924;-66
2022/10/11 06:24:43;;;;;;;;;;;20.60;43.60;19.30;102199.00;;;;5075065;28;19923;-66
2022/10/11 06:27:29;;;;;;;;;;;20.50;43.50;19.30;102199.00;;;;5090661;28;20199;-66
2022/10/11 06:30:15;;;;;;;;;;;20.50;43.50;19.30;102203.00;;;;5079619;28;19920;-66
2022/10/11 06:33:01;;;;;;;;;;;20.60;43.60;19.30;102212.00;;;;5079690;28;20320;-65
2022/10/11 06:35:47;;;;;;;;;;;20.50;44.00;19.30;102216.00;;;;5082779;28;19920;-66
2022/10/11 06:38:33;;;;;;;;;;;20.60;43.50;19.30;102214.00;;;;5082607;28;20285;-66
2022/10/11 06:41:24;;;;;;;;;;;20.50;43.50;19.30;102214.00;;;;5090566;27;19924;-66
2022/10/11 06:44:11;;;;;;;;;;;20.50;43.50;19.30;102217.00;;;;5067709;28;19916;-66
2022/10/11 06:46:57;;;;;;;;;;;20.60;43.50;19.30;102220.00;;;;5082785;28;20421;-66
2022/10/11 06:49:43;;;;;;;;;;;20.50;43.40;19.30;102231.00;;;;5078816;28;19916;-70
2022/10/11 06:52:29;;;;;;;;;;;20.50;43.50;19.30;102226.00;;;;5081044;28;20350;-66
2022/10/11 06:55:15;;;;;;;;;;;20.50;43.40;19.30;102236.00;;;;5086719;28;20392;-66
2022/10/11 06:58:01;;;;;;;;;;;20.60;43.50;19.30;102239.00;;;;5075961;28;19916;-66
2022/10/11 07:00:47;;;;;;;;;;;20.60;43.50;19.30;102238.00;;;;5084004;28;19928;-65
2022/10/11 07:03:33;;;;;;;;;;;20.50;43.40;19.30;102238.00;;;;5075079;28;20319;-68
2022/10/11 07:06:22;;;;;;;;;;;20.50;43.50;19.30;102244.00;;;;5080876;28;20390;-65
2022/10/11 07:09:08;;;;;;;;;;;20.50;43.40;19.30;102247.00;;;;5065476;28;20341;-66
2022/10/11 07:11:54;;;;;;;;;;;20.60;43.50;19.30;102256.00;;;;5074156;28;19960;-66
2022/10/11 07:14:40;;;;;;;;;;;20.50;43.40;19.30;102254.00;;;;5084106;28;19943;-75
2022/10/11 07:17:26;;;;;;;;;;;20.50;43.40;19.30;102252.00;;;;5091660;28;20003;-65
2022/10/11 07:20:12;;;;;;;;;;;20.50;43.40;19.30;102257.00;;;;5080308;28;19924;-66
2022/10/11 07:22:59;;;;;;;;;;;20.50;43.40;19.30;102265.00;;;;5080755;28;19995;-65
2022/10/11 07:25:45;;;;;;;;;;;20.50;43.40;19.30;102265.00;;;;5091311;28;19927;-65
2022/10/11 07:28:31;;;;;;;;;;;20.50;43.50;19.30;102271.00;;;;5084708;28;20243;-65
2022/10/11 07:31:19;;;;;;;;;;;20.50;43.40;19.30;102263.00;;;;5083852;28;20004;-65
2022/10/11 07:34:05;;;;;;;;;;;20.50;43.40;19.30;102268.00;;;;5069688;28;19922;-66
2022/10/11 07:36:51;;;;;;;;;;;20.50;43.40;19.30;102274.00;;;;5081262;28;19916;-66
2022/10/11 07:39:37;;;;;;;;;;;20.50;43.40;19.30;102279.00;;;;5076612;28;19923;-66
2022/10/11 07:42:23;;;;;;;;;;;20.60;43.50;19.30;102277.00;;;;5094844;28;19936;-66
2022/10/11 07:45:09;;;;;;;;;;;20.50;43.40;19.30;102280.00;;;;5083607;28;20022;-66
2022/10/11 07:47:55;;;;;;;;;;;20.50;43.40;19.30;102280.00;;;;5062554;28;20684;-66
2022/10/11 07:50:41;;;;;;;;;;;20.50;43.40;19.30;102276.00;;;;5082414;28;19926;-66
2022/10/11 07:53:27;;;;;;;;;;;20.50;43.40;19.30;102279.00;;;;5079003;28;19923;-67
2022/10/11 07:56:15;;;;;;;;;;;20.60;43.50;19.30;102276.00;;;;5096553;27;19999;-67
2022/10/11 07:59:04;;;;;;;;;;;20.60;43.50;19.30;102282.00;;;;5070612;28;19927;-67
2022/10/11 08:01:50;;;;;;;;;;;20.60;43.40;19.30;102294.00;;;;5085297;28;20042;-67
2022/10/11 08:04:36;;;;;;;;;;;20.60;43.50;19.30;102294.00;;;;5081772;27;19942;-67
2022/10/11 08:07:22;;;;;;;;;;;20.50;43.40;19.30;102288.00;;;;5082504;28;20258;-67
2022/10/11 08:10:09;;;;;;;;;;;20.60;43.40;19.30;102292.00;;;;5080782;28;19916;-67
2022/10/11 08:12:55;;;;;;;;;;;20.60;43.40;19.30;102294.00;;;;5080712;28;19960;-67
2022/10/11 08:15:41;;;;;;;;;;;20.60;43.40;19.30;102284.00;;;;5076790;28;19923;-67
2022/10/11 08:18:27;;;;;;;;;;;20.60;43.40;19.30;102284.00;;;;5081310;28;20110;-68
2022/10/11 08:21:14;;;;;;;;;;;20.60;43.40;19.30;102284.00;;;;5080061;28;19931;-68
2022/10/11 08:24:01;;;;;;;;;;;20.60;43.40;19.30;102289.00;;;;5074843;28;20426;-68
2022/10/11 08:26:47;;;;;;;;;;;20.60;43.40;19.30;102288.00;;;;5064666;28;19938;-68
2022/10/11 08:29:33;;;;;;;;;;;20.60;43.50;19.30;102293.00;;;;5082074;28;19916;-68
2022/10/11 08:32:19;;;;;;;;;;;20.70;43.50;19.30;102296.00;;;;5077393;28;19924;-65
2022/10/11 08:35:06;;;;;;;;;;;20.60;43.40;19.30;102289.00;;;;5072164;28;19917;-66
2022/10/11 08:37:51;;;;;;;;;;;20.60;43.40;19.30;102293.00;;;;5076662;28;19916;-66
2022/10/11 08:40:43;;;;;;;;;;;20.60;43.50;19.30;102299.00;;;;5080413;28;19993;-66
2022/10/11 08:43:41;;;;;;;;;;;20.60;43.50;19.30;102305.00;;;;5091079;27;19982;-65
2022/10/11 08:46:29;;;;;;;;;;;20.60;43.40;19.30;102314.00;;;;5098130;28;19923;-65
2022/10/11 08:49:17;;;;;;;;;;;20.60;43.50;19.30;102316.00;;;;5047044;28;19917;-65
2022/10/11 08:52:10;;;;;;;;;;;20.60;43.50;19.30;102309.00;;;;5060691;28;19920;-65
2022/10/11 08:54:58;;;;;;;;;;;20.60;43.50;19.30;102318.00;;;;5092769;28;20315;-74
2022/10/11 08:57:46;;;;;;;;;;;20.60;43.50;19.40;102308.00;;;;5072100;28;19931;-65
2022/10/11 09:00:32;;;;;;;;;;;20.70;43.50;19.40;102321.00;;;;5078780;28;19967;-65
2022/10/11 09:03:39;;;;;;;;;;;20.70;43.50;19.40;102313.00;;;;5072783;28;19924;-65
2022/10/11 09:06:42;;;;;;;;;;;20.70;43.50;19.40;102322.00;;;;5063341;28;20006;-66
2022/10/11 09:09:41;;;;;;;;;;;20.70;43.60;19.40;102324.00;;;;5073743;28;19917;-66
2022/10/11 09:12:33;;;;;;;;;;;20.70;43.60;19.40;102317.00;;;;5083359;28;20143;-65
2022/10/11 09:15:45;;;;;;;;;;;20.70;43.60;19.40;102318.00;;;;5080061;28;19919;-75
2022/10/11 09:18:41;;;;;;;;;;;20.70;43.60;19.40;102325.00;;;;5072611;28;19981;-66
2022/10/11 09:21:55;;;;;;;;;;;20.60;43.50;19.40;102319.00;;;;5088021;28;20427;-66
2022/10/11 09:24:59;;;;;;;;;;;20.70;43.60;19.40;102332.00;;;;5080378;28;19920;-65
2022/10/11 09:28:16;;;;;;;;;;;20.70;43.60;19.40;102336.00;;;;5085377;28;20462;-65
2022/10/11 09:31:02;;;;;;;;;;;20.70;43.60;19.40;102326.00;;;;5079132;28;19924;-66
2022/10/11 09:33:49;;;;;;;;;;;20.70;43.60;19.40;102326.00;;;;5094177;27;19924;-65
2022/10/11 09:36:43;;;;;;;;;;;20.80;43.60;19.50;102333.00;;;;5081062;28;19931;-66
2022/10/11 09:39:31;;;;;;;;;;;20.80;43.60;19.50;102329.00;;;;5077293;27;19925;-65
2022/10/11 09:42:17;;;;;;;;;;;20.80;43.60;19.50;102323.00;;;;5090797;27;19931;-66
2022/10/11 09:45:18;;;;;;;;;;;20.80;43.60;19.50;102323.00;;;;5079651;28;19924;-65
2022/10/11 09:48:05;;;;;;;;;;;20.80;43.60;19.50;102329.00;;;;5084221;28;19917;-66
2022/10/11 09:50:51;;;;;;;;;;;20.80;43.60;19.50;102332.00;;;;5079850;28;19970;-66
2022/10/11 09:53:49;;;;;;;;;;;20.80;43.60;19.50;102332.00;;;;5085723;28;19946;-65
2022/10/11 09:56:40;;;;;;;;;;;20.80;43.60;19.50;102336.00;;;;5081459;28;19930;-66
2022/10/11 09:59:28;;;;;;;;;;;20.90;43.60;19.50;102331.00;;;;5090042;28;20073;-68
2022/10/11 10:02:20;;;;;;;;;;;20.80;43.60;19.50;102322.00;;;;5090916;28;19924;-67
2022/10/11 10:05:08;;;;;;;;;;;20.90;43.70;19.50;102328.00;;;;5078577;28;19971;-67
2022/10/11 10:08:10;;;;;;;;;;;20.90;43.70;19.50;102334.00;;;;5066718;28;19963;-67
2022/10/11 10:11:18;;;;;;;;;;;20.90;43.70;19.50;102329.00;;;;5080311;28;20388;-67
2022/10/11 10:14:04;;;;;;;;;;;20.90;43.70;19.50;102335.00;;;;5087316;28;19960;-67
2022/10/11 10:17:12;;;;;;;;;;;20.90;43.60;19.50;102340.00;;;;5089337;28;19969;-67
2022/10/11 10:19:59;;;;;;;;;;;20.90;43.70;19.60;102330.00;;;;5069206;28;19953;-67
2022/10/11 10:22:45;;;;;;;;;;;20.90;43.70;19.60;102340.00;;;;5070031;28;19916;-67
2022/10/11 10:25:33;;;;;;;;;;;20.90;43.70;19.60;102341.00;;;;5088815;28;19920;-67
2022/10/11 10:28:24;;;;;;;;;;;20.90;43.70;19.60;102335.00;;;;5067025;28;19920;-67
2022/10/11 10:31:20;;;;;;;;;;;21.00;43.70;19.60;102336.00;;;;5065743;28;19916;-67
2022/10/11 10:34:13;;;;;;;;;;;21.00;43.70;19.60;102334.00;;;;5080017;28;19960;-67
2022/10/11 10:37:03;;;;;;;;;;;21.00;43.70;19.60;102335.00;;;;5082298;28;19981;-67
2022/10/11 10:39:55;;;;;;;;;;;21.00;43.70;19.60;102329.00;;;;5076479;28;19920;-67
2022/10/11 10:42:41;;;;;;;;;;;21.00;43.70;19.60;102336.00;;;;5079577;28;19926;-67
2022/10/11 10:45:32;;;;;;;;;;;21.00;43.70;19.60;102332.00;;;;5078302;28;20313;-67
2022/10/11 10:48:25;;;;;;;;;;;21.00;43.70;19.60;102332.00;;;;5062623;28;19927;-67
2022/10/11 10:51:45;;;;;;;;;;;21.00;43.70;19.60;102334.00;;;;5092201;27;19916;-67
2022/10/11 10:54:57;;;;;;;;;;;21.00;43.70;19.60;102332.00;;;;5094060;28;20654;-67
2022/10/11 10:58:02;;;;;;;;;;;21.00;43.70;19.60;102331.00;;;;5088896;28;19923;-67
2022/10/11 11:00:49;;;;;;;;;;;21.00;43.70;19.60;102322.00;;;;5078292;28;19920;-67
2022/10/11 11:03:39;;;;;;;;;;;21.00;43.70;19.70;102324.00;;;;5054057;28;19973;-67
2022/10/11 11:06:49;;;;;;;;;;;21.00;43.70;19.70;102323.00;;;;5089581;27;19929;-67
2022/10/11 11:10:05;;;;;;;;;;;21.10;43.80;19.70;102324.00;;;;5084149;28;19930;-67
2022/10/11 11:13:41;;;;;;;;;;;21.10;43.80;19.70;102316.00;;;;5095388;27;19924;-67
2022/10/11 11:16:30;;;;;;;;;;;21.10;43.80;19.70;102310.00;;;;5017131;28;19944;-67
2022/10/11 11:19:37;;;;;;;;;;;21.10;43.80;19.70;102315.00;;;;5079154;28;20281;-67
2022/10/11 11:22:27;;;;;;;;;;;21.10;43.80;19.70;102313.00;;;;5077649;28;20372;-67
2022/10/11 11:25:22;;;;;;;;;;;21.10;43.80;19.70;102307.00;;;;5062784;28;20346;-67
2022/10/11 11:28:25;;;;;;;;;;;21.10;43.80;19.70;102299.00;;;;5077120;28;19917;-67
2022/10/11 11:31:17;;;;;;;;;;;21.10;43.80;19.70;102296.00;;;;5065091;28;20250;-67
2022/10/11 11:34:09;;;;;;;;;;;21.10;43.80;19.70;102291.00;;;;5089505;27;19937;-67
2022/10/11 11:37:00;;;;;;;;;;;21.20;43.90;19.70;102284.00;;;;5081849;28;20281;-67
2022/10/11 11:39:48;;;;;;;;;;;21.10;43.80;19.70;102284.00;;;;5080715;28;20357;-67
2022/10/11 11:42:38;;;;;;;;;;;21.20;43.80;19.80;102276.00;;;;5058520;28;20483;-67
2022/10/11 11:45:57;;;;;;;;;;;21.20;43.80;19.80;102275.00;;;;5093974;28;19952;-67
2022/10/11 11:48:43;;;;;;;;;;;21.20;43.80;19.80;102284.00;;;;5053969;28;19959;-67
2022/10/11 11:51:39;;;;;;;;;;;21.20;43.80;19.80;102283.00;;;;5095139;28;19916;-67
2022/10/11 11:54:37;;;;;;;;;;;21.20;43.80;19.80;102269.00;;;;5073177;28;19916;-67
2022/10/11 11:57:41;;;;;;;;;;;21.20;43.80;19.80;102277.00;;;;5049769;28;19920;-67
2022/10/11 12:00:30;;;;;;;;;;;21.20;43.80;19.80;102272.00;;;;5085998;28;19927;-67
2022/10/11 12:03:25;;;;;;;;;;;21.20;43.80;19.80;102272.00;;;;5071255;28;19920;-67
2022/10/11 12:06:10;;;;;;;;;;;21.20;43.80;19.80;102266.00;;;;5069078;28;19921;-67
2022/10/11 12:09:04;;;;;;;;;;;21.30;43.90;19.80;102269.00;;;;5084768;28;19916;-67
2022/10/11 12:11:55;;;;;;;;;;;21.20;43.80;19.80;102270.00;;;;5104033;27;19916;-67
2022/10/11 12:14:41;;;;;;;;;;;21.20;43.80;19.90;102270.00;;;;5092634;28;20369;-67
2022/10/11 12:17:27;;;;;;;;;;;21.20;43.80;19.80;102265.00;;;;5105011;27;19923;-67
2022/10/11 12:20:30;;;;;;;;;;;21.30;43.90;19.90;102261.00;;;;5081635;27;19915;-67
2022/10/11 12:23:28;;;;;;;;;;;21.30;43.90;19.90;102262.00;;;;5107181;27;19945;-67
2022/10/11 12:26:37;;;;;;;;;;;21.30;43.90;19.90;102262.00;;;;5092211;28;19969;-67
2022/10/11 12:29:24;;;;;;;;;;;21.30;43.90;19.90;102253.00;;;;5094511;28;19916;-67
2022/10/11 12:32:33;;;;;;;;;;;21.30;43.90;19.90;102252.00;;;;5112963;27;20276;-67
2022/10/11 12:35:31;;;;;;;;;;;21.30;43.90;19.90;102251.00;;;;5094495;28;20265;-67
2022/10/11 12:38:37;;;;;;;;;;;21.30;43.90;19.90;102248.00;;;;5094168;27;19923;-67
2022/10/11 12:41:37;;;;;;;;;;;21.30;43.80;19.90;102254.00;;;;5087145;28;20143;-67
2022/10/11 12:44:25;;;;;;;;;;;21.30;43.90;19.90;102243.00;;;;5076440;28;19916;-67
2022/10/11 12:47:34;;;;;;;;;;;21.30;43.90;19.90;102243.00;;;;5099474;27;20366;-67
2022/10/11 12:50:25;;;;;;;;;;;21.40;43.90;19.90;102234.00;;;;5080059;28;19942;-67
2022/10/11 12:53:22;;;;;;;;;;;21.40;43.90;19.90;102234.00;;;;5093170;28;19969;-67
2022/10/11 12:56:15;;;;;;;;;;;21.40;43.80;19.90;102237.00;;;;5107369;27;19916;-67
2022/10/11 12:59:02;;;;;;;;;;;21.40;43.80;19.90;102232.00;;;;5088441;28;20011;-67
2022/10/11 13:02:23;;;;;;;;;;;21.40;43.80;19.90;102241.00;;;;5104793;27;19982;-67
2022/10/11 13:05:22;;;;;;;;;;;21.40;43.80;19.90;102235.00;;;;5081138;28;20373;-67
2022/10/11 13:08:12;;;;;;;;;;;21.40;43.80;19.90;102232.00;;;;5091562;28;20375;-67
2022/10/11 13:11:02;;;;;;;;;;;21.40;44.20;19.90;102229.00;;;;5097650;28;19919;-67
2022/10/11 13:13:55;;;;;;;;;;;21.40;43.80;20.00;102231.00;;;;5098763;28;19916;-67
2022/10/11 13:16:48;;;;;;;;;;;21.40;43.80;20.00;102233.00;;;;5094658;28;20281;-67
2022/10/11 13:19:35;;;;;;;;;;;21.40;43.80;20.00;102230.00;;;;5079894;28;20057;-67
2022/10/11 13:22:21;;;;;;;;;;;21.40;43.80;20.00;102225.00;;;;5095221;28;19931;-67
2022/10/11 13:25:18;;;;;;;;;;;21.40;43.70;20.00;102220.00;;;;5094375;28;19916;-67
2022/10/11 13:28:04;;;;;;;;;;;21.40;43.70;20.00;102229.00;;;;5104162;28;19916;-67
2022/10/11 13:30:52;;;;;;;;;;;21.40;43.70;20.00;102222.00;;;;5097836;28;19930;-67
2022/10/11 13:33:38;;;;;;;;;;;21.50;43.70;20.00;102218.00;;;;5105222;28;19924;-67
2022/10/11 13:36:25;;;;;;;;;;;21.50;43.80;20.00;102220.00;;;;5091292;28;19916;-67
2022/10/11 13:39:34;;;;;;;;;;;21.50;43.80;20.00;102213.00;;;;5072306;28;20218;-67
2022/10/11 13:42:25;;;;;;;;;;;21.50;43.70;20.00;102219.00;;;;5075074;28;20385;-67
2022/10/11 13:45:11;;;;;;;;;;;21.50;43.70;20.00;102211.00;;;;5096945;28;20289;-67